createdAt,value
2023-05-08T00:00:28.904Z,102308.12
2023-05-08T00:00:59.487Z,102308.14
2023-05-08T00:01:29.904Z,102300.70
2023-05-08T00:02:00.328Z,102303.23
2023-05-08T00:02:30.785Z,102300.86
2023-05-08T00:03:01.311Z,102299.55
2023-05-08T00:03:31.898Z,102297.54
2023-05-08T00:04:02.677Z,102298.06
2023-05-08T00:04:33.223Z,102301.07
2023-05-08T00:05:03.653Z,102300.16
2023-05-08T00:05:34.056Z,102299.81
2023-05-08T00:06:04.523Z,102302.87
2023-05-08T00:06:34.926Z,102297.98
2023-05-08T00:07:05.339Z,102297.00
2023-05-08T00:07:35.767Z,102297.83
2023-05-08T00:08:06.189Z,102292.48
2023-05-08T00:08:36.618Z,102296.53
2023-05-08T00:09:07.046Z,102290.48
2023-05-08T00:09:37.460Z,102292.38
2023-05-08T00:10:07.901Z,102295.91
2023-05-08T00:10:38.311Z,102294.90
2023-05-08T00:11:08.769Z,102294.53
2023-05-08T00:11:39.176Z,102293.45
2023-05-08T00:12:09.591Z,102300.89
2023-05-08T00:12:40.057Z,102296.86
2023-05-08T00:13:10.482Z,102296.38
2023-05-08T00:13:40.916Z,102296.41
2023-05-08T00:14:11.319Z,102295.05
2023-05-08T00:14:41.755Z,102293.55
2023-05-08T00:15:12.182Z,102296.89
2023-05-08T00:15:42.613Z,102296.04
2023-05-08T00:16:13.161Z,102300.42
2023-05-08T00:16:43.640Z,102301.39
2023-05-08T00:17:14.130Z,102299.03
2023-05-08T00:17:44.625Z,102298.03
2023-05-08T00:18:15.033Z,102301.38
2023-05-08T00:18:45.452Z,102299.19
2023-05-08T00:19:15.882Z,102301.73
2023-05-08T00:19:46.299Z,102295.39
2023-05-08T00:20:16.721Z,102303.59
2023-05-08T00:20:47.150Z,102298.20
2023-05-08T00:21:17.590Z,102296.53
2023-05-08T00:21:47.994Z,102303.92
2023-05-08T00:22:18.417Z,102299.20
2023-05-08T00:22:48.842Z,102301.02
2023-05-08T00:23:19.274Z,102304.05
2023-05-08T00:23:49.683Z,102306.25
2023-05-08T00:24:20.115Z,102304.08
2023-05-08T00:24:50.542Z,102305.08
2023-05-08T00:25:20.984Z,102303.04
2023-05-08T00:25:51.394Z,102304.70
2023-05-08T00:26:21.823Z,102308.61
2023-05-08T00:26:52.251Z,102305.39
2023-05-08T00:27:22.678Z,102308.08
2023-05-08T00:27:53.092Z,102307.45
2023-05-08T00:28:23.523Z,102304.75
2023-05-08T00:28:53.944Z,102303.39
2023-05-08T00:29:24.379Z,102305.28
2023-05-08T00:29:54.784Z,102307.61
2023-05-08T00:30:25.225Z,102306.78
2023-05-08T00:30:55.656Z,102304.97
2023-05-08T00:31:26.117Z,102308.18
2023-05-08T00:31:56.583Z,102302.78
2023-05-08T00:32:27.311Z,102309.64
2023-05-08T00:32:57.947Z,102311.52
2023-05-08T00:33:28.330Z,102310.48
2023-05-08T00:33:58.747Z,102309.33
2023-05-08T00:34:29.172Z,102306.95
2023-05-08T00:34:59.597Z,102308.67
2023-05-08T00:35:30.041Z,102305.80
2023-05-08T00:36:00.457Z,102306.97
2023-05-08T00:36:30.898Z,102309.36
2023-05-08T00:37:01.315Z,102305.17
2023-05-08T00:37:31.750Z,102309.38
2023-05-08T00:38:02.206Z,102311.05
2023-05-08T00:38:32.580Z,102309.38
2023-05-08T00:39:03.010Z,102309.73
2023-05-08T00:39:33.426Z,102312.95
2023-05-08T00:40:03.922Z,102314.62
2023-05-08T00:40:34.358Z,102310.96
2023-05-08T00:41:04.780Z,102311.48
2023-05-08T00:41:35.212Z,102316.37
2023-05-08T00:42:05.631Z,102313.16
2023-05-08T00:42:36.051Z,102313.16
2023-05-08T00:43:06.473Z,102314.52
2023-05-08T00:43:36.905Z,102314.34
2023-05-08T00:44:07.320Z,102316.86
2023-05-08T00:44:37.749Z,102316.32
2023-05-08T00:45:08.175Z,102315.62
2023-05-08T00:45:38.601Z,102320.19
2023-05-08T00:46:09.053Z,102316.30
2023-05-08T00:46:39.511Z,102316.97
2023-05-08T00:47:09.908Z,102316.31
2023-05-08T00:47:40.373Z,102315.64
2023-05-08T00:48:10.759Z,102318.84
2023-05-08T00:48:41.177Z,102316.84
2023-05-08T00:49:11.594Z,102315.30
2023-05-08T00:49:42.034Z,102318.34
2023-05-08T00:50:12.694Z,102314.83
2023-05-08T00:50:43.318Z,102321.05
2023-05-08T00:51:13.744Z,102318.37
2023-05-08T00:51:44.181Z,102315.80
2023-05-08T00:52:14.587Z,102319.00
2023-05-08T00:52:45.017Z,102317.52
2023-05-08T00:53:15.429Z,102320.03
2023-05-08T00:53:45.853Z,102322.05
2023-05-08T00:54:16.289Z,102317.83
2023-05-08T00:54:46.709Z,102317.19
2023-05-08T00:55:17.133Z,102320.05
2023-05-08T00:55:47.555Z,102316.35
2023-05-08T00:56:17.980Z,102319.73
2023-05-08T00:56:48.402Z,102317.69
2023-05-08T00:57:18.833Z,102317.50
2023-05-08T00:57:49.255Z,102317.16
2023-05-08T00:58:19.704Z,102320.36
2023-05-08T00:58:50.115Z,102320.69
2023-05-08T00:59:20.544Z,102318.31
2023-05-08T00:59:50.965Z,102315.64
2023-05-08T01:00:21.386Z,102319.88
2023-05-08T01:00:51.811Z,102319.36
2023-05-08T01:01:22.279Z,102324.75
2023-05-08T01:01:52.863Z,102324.75
2023-05-08T01:02:23.358Z,102324.08
2023-05-08T01:02:53.927Z,102325.47
2023-05-08T01:03:24.497Z,102328.67
2023-05-08T01:03:55.082Z,102324.45
2023-05-08T01:04:25.489Z,102325.65
2023-05-08T01:04:55.913Z,102331.37
2023-05-08T01:05:26.339Z,102328.16
2023-05-08T01:05:56.758Z,102327.63
2023-05-08T01:06:27.181Z,102324.06
2023-05-08T01:06:57.625Z,102324.73
2023-05-08T01:07:28.106Z,102322.55
2023-05-08T01:07:58.485Z,102324.73
2023-05-08T01:08:28.906Z,102328.56
2023-05-08T01:08:59.347Z,102330.74
2023-05-08T01:09:29.776Z,102326.05
2023-05-08T01:10:00.243Z,102324.06
2023-05-08T01:10:30.638Z,102323.37
2023-05-08T01:11:01.048Z,102326.28
2023-05-08T01:11:31.472Z,102323.42
2023-05-08T01:12:01.893Z,102325.61
2023-05-08T01:12:32.315Z,102323.58
2023-05-08T01:13:02.786Z,102326.23
2023-05-08T01:13:33.168Z,102325.19
2023-05-08T01:14:03.602Z,102326.73
2023-05-08T01:14:34.039Z,102322.55
2023-05-08T01:15:04.507Z,102327.11
2023-05-08T01:15:34.888Z,102327.30
2023-05-08T01:16:05.379Z,102324.76
2023-05-08T01:16:35.859Z,102324.27
2023-05-08T01:17:06.313Z,102321.38
2023-05-08T01:17:36.781Z,102326.44
2023-05-08T01:18:07.219Z,102321.20
2023-05-08T01:18:37.675Z,102322.02
2023-05-08T01:19:08.093Z,102326.91
2023-05-08T01:19:38.514Z,102327.80
2023-05-08T01:20:08.932Z,102330.50
2023-05-08T01:20:39.368Z,102327.13
2023-05-08T01:21:09.786Z,102328.31
2023-05-08T01:21:40.208Z,102326.62
2023-05-08T01:22:10.652Z,102326.65
2023-05-08T01:22:41.074Z,102329.16
2023-05-08T01:23:11.511Z,102328.48
2023-05-08T01:23:41.941Z,102329.84
2023-05-08T01:24:12.361Z,102325.48
2023-05-08T01:24:42.782Z,102324.45
2023-05-08T01:25:13.258Z,102327.98
2023-05-08T01:25:43.649Z,102327.92
2023-05-08T01:26:14.076Z,102323.20
2023-05-08T01:26:44.499Z,102326.03
2023-05-08T01:27:14.920Z,102325.68
2023-05-08T01:27:45.341Z,102326.67
2023-05-08T01:28:15.784Z,102328.33
2023-05-08T01:28:46.205Z,102326.16
2023-05-08T01:29:16.634Z,102327.03
2023-05-08T01:29:47.051Z,102323.53
2023-05-08T01:30:17.490Z,102327.59
2023-05-08T01:30:47.900Z,102323.23
2023-05-08T01:31:18.322Z,102325.41
2023-05-08T01:31:48.759Z,102323.24
2023-05-08T01:32:19.181Z,102323.22
2023-05-08T01:32:49.670Z,102326.05
2023-05-08T01:33:20.182Z,102327.42
2023-05-08T01:33:50.642Z,102322.05
2023-05-08T01:34:21.030Z,102323.52
2023-05-08T01:34:51.444Z,102324.02
2023-05-08T01:35:21.862Z,102325.22
2023-05-08T01:35:52.297Z,102329.94
2023-05-08T01:36:22.715Z,102322.38
2023-05-08T01:36:53.132Z,102325.56
2023-05-08T01:37:23.579Z,102327.61
2023-05-08T01:37:54.009Z,102323.42
2023-05-08T01:38:24.439Z,102326.80
2023-05-08T01:38:54.861Z,102323.58
2023-05-08T01:39:25.270Z,102328.48
2023-05-08T01:39:55.724Z,102328.16
2023-05-08T01:40:26.137Z,102327.66
2023-05-08T01:40:56.553Z,102327.63
2023-05-08T01:41:26.977Z,102331.17
2023-05-08T01:41:57.397Z,102328.00
2023-05-08T01:42:27.830Z,102328.81
2023-05-08T01:42:58.255Z,102329.67
2023-05-08T01:43:28.686Z,102327.98
2023-05-08T01:43:59.112Z,102329.66
2023-05-08T01:44:29.538Z,102329.97
2023-05-08T01:44:59.970Z,102333.47
2023-05-08T01:45:30.393Z,102332.60
2023-05-08T01:46:00.813Z,102331.62
2023-05-08T01:46:31.269Z,102336.35
2023-05-08T01:47:01.693Z,102329.27
2023-05-08T01:47:32.150Z,102329.75
2023-05-08T01:48:02.611Z,102332.31
2023-05-08T01:48:33.006Z,102328.31
2023-05-08T01:49:03.431Z,102335.05
2023-05-08T01:49:33.894Z,102334.55
2023-05-08T01:50:04.289Z,102332.36
2023-05-08T01:50:34.727Z,102333.20
2023-05-08T01:51:05.148Z,102335.22
2023-05-08T01:51:35.577Z,102334.55
2023-05-08T01:52:05.995Z,102332.02
2023-05-08T01:52:36.491Z,102330.16
2023-05-08T01:53:06.857Z,102333.15
2023-05-08T01:53:37.271Z,102334.48
2023-05-08T01:54:10.127Z,102337.17
2023-05-08T01:54:40.737Z,102331.31
2023-05-08T01:55:11.172Z,102333.17
2023-05-08T01:55:41.595Z,102329.64
2023-05-08T01:56:12.022Z,102330.50
2023-05-08T01:56:42.460Z,102330.36
2023-05-08T01:57:12.891Z,102335.41
2023-05-08T01:57:43.313Z,102329.86
2023-05-08T01:58:13.774Z,102329.15
2023-05-08T01:58:44.175Z,102332.86
2023-05-08T01:59:14.590Z,102328.80
2023-05-08T01:59:45.010Z,102328.62
2023-05-08T02:00:15.590Z,102326.97
2023-05-08T02:00:45.965Z,102328.32
2023-05-08T02:01:16.475Z,102331.85
2023-05-08T02:01:46.964Z,102329.13
2023-05-08T02:02:17.431Z,102328.48
2023-05-08T02:02:47.892Z,102331.20
2023-05-08T02:03:18.375Z,102334.23
2023-05-08T02:03:48.823Z,102331.52
2023-05-08T02:04:19.243Z,102336.42
2023-05-08T02:04:49.689Z,102335.07
2023-05-08T02:05:20.109Z,102338.13
2023-05-08T02:05:50.530Z,102340.12
2023-05-08T02:06:20.968Z,102343.17
2023-05-08T02:06:51.408Z,102341.52
2023-05-08T02:07:21.818Z,102344.88
2023-05-08T02:07:52.259Z,102341.84
2023-05-08T02:08:22.682Z,102346.53
2023-05-08T02:08:53.102Z,102342.47
2023-05-08T02:09:23.531Z,102342.30
2023-05-08T02:09:53.946Z,102337.41
2023-05-08T02:10:24.382Z,102336.55
2023-05-08T02:10:54.793Z,102339.23
2023-05-08T02:11:25.246Z,102337.22
2023-05-08T02:11:55.659Z,102335.86
2023-05-08T02:12:26.072Z,102334.66
2023-05-08T02:12:56.545Z,102335.05
2023-05-08T02:13:27.008Z,102335.73
2023-05-08T02:13:57.399Z,102338.41
2023-05-08T02:14:27.822Z,102334.72
2023-05-08T02:14:58.242Z,102333.69
2023-05-08T02:15:28.686Z,102333.88
2023-05-08T02:15:59.096Z,102336.04
2023-05-08T02:16:29.604Z,102331.15
2023-05-08T02:17:00.095Z,102336.24
2023-05-08T02:17:30.720Z,102331.70
2023-05-08T02:18:01.216Z,102332.69
2023-05-08T02:18:31.636Z,102329.67
2023-05-08T02:19:02.061Z,102326.47
2023-05-08T02:19:32.485Z,102328.00
2023-05-08T02:20:02.906Z,102328.64
2023-05-08T02:20:33.342Z,102328.80
2023-05-08T02:21:03.773Z,102329.30
2023-05-08T02:21:34.192Z,102331.32
2023-05-08T02:22:04.621Z,102328.98
2023-05-08T02:22:35.047Z,102329.09
2023-05-08T02:23:05.488Z,102324.38
2023-05-08T02:23:35.884Z,102324.59
2023-05-08T02:24:06.304Z,102330.97
2023-05-08T02:24:36.738Z,102331.81
2023-05-08T02:25:07.160Z,102328.62
2023-05-08T02:25:37.610Z,102328.78
2023-05-08T02:26:08.018Z,102327.77
2023-05-08T02:26:38.466Z,102327.95
2023-05-08T02:27:08.866Z,102333.05
2023-05-08T02:27:39.289Z,102334.92
2023-05-08T02:28:09.711Z,102337.95
2023-05-08T02:28:40.133Z,102332.52
2023-05-08T02:29:10.556Z,102328.63
2023-05-08T02:29:41.004Z,102333.56
2023-05-08T02:30:11.599Z,102334.89
2023-05-08T02:30:42.286Z,102329.69
2023-05-08T02:31:12.719Z,102339.62
2023-05-08T02:31:43.186Z,102339.64
2023-05-08T02:32:13.685Z,102338.30
2023-05-08T02:32:44.163Z,102337.10
2023-05-08T02:33:14.630Z,102334.28
2023-05-08T02:33:45.026Z,102331.58
2023-05-08T02:34:15.457Z,102336.61
2023-05-08T02:34:55.224Z,102339.66
2023-05-08T02:35:21.211Z,102337.62
2023-05-08T02:35:51.636Z,102339.62
2023-05-08T02:36:22.063Z,102335.44
2023-05-08T02:36:52.488Z,102334.24
2023-05-08T02:37:22.912Z,102331.53
2023-05-08T02:37:53.338Z,102333.89
2023-05-08T02:38:23.808Z,102334.77
2023-05-08T02:38:54.198Z,102331.56
2023-05-08T02:39:24.612Z,102331.71
2023-05-08T02:39:55.032Z,102329.00
2023-05-08T02:40:25.472Z,102329.69
2023-05-08T02:40:55.894Z,102321.95
2023-05-08T02:41:26.315Z,102326.64
2023-05-08T02:41:56.744Z,102327.00
2023-05-08T02:42:27.178Z,102329.52
2023-05-08T02:42:57.602Z,102327.71
2023-05-08T02:43:28.025Z,102327.52
2023-05-08T02:43:58.460Z,102329.90
2023-05-08T02:44:28.881Z,102329.05
2023-05-08T02:44:59.313Z,102330.56
2023-05-08T02:45:29.737Z,102333.09
2023-05-08T02:46:00.208Z,102331.09
2023-05-08T02:46:30.766Z,102333.59
2023-05-08T02:47:01.190Z,102333.23
2023-05-08T02:47:31.644Z,102333.75
2023-05-08T02:48:02.093Z,102332.08
2023-05-08T02:48:32.494Z,102331.22
2023-05-08T02:49:02.895Z,102329.03
2023-05-08T02:49:33.375Z,102334.27
2023-05-08T02:50:03.775Z,102332.42
2023-05-08T02:50:34.199Z,102330.56
2023-05-08T02:51:04.614Z,102332.26
2023-05-08T02:51:35.059Z,102334.61
2023-05-08T02:52:05.491Z,102333.27
2023-05-08T02:52:35.916Z,102333.78
2023-05-08T02:53:06.346Z,102336.10
2023-05-08T02:53:36.805Z,102333.74
2023-05-08T02:54:07.189Z,102335.94
2023-05-08T02:54:37.619Z,102333.07
2023-05-08T02:55:08.047Z,102335.59
2023-05-08T02:55:38.477Z,102335.25
2023-05-08T02:56:08.931Z,102333.58
2023-05-08T02:56:39.338Z,102334.94
2023-05-08T02:57:09.756Z,102326.34
2023-05-08T02:57:40.177Z,102330.23
2023-05-08T02:58:10.601Z,102334.09
2023-05-08T02:58:41.023Z,102333.44
2023-05-08T02:59:11.443Z,102334.28
2023-05-08T02:59:42.413Z,102336.30
2023-05-08T03:00:13.093Z,102330.73
2023-05-08T03:00:43.629Z,102329.73
2023-05-08T03:01:14.074Z,102333.27
2023-05-08T03:01:44.502Z,102336.13
2023-05-08T03:02:14.938Z,102331.90
2023-05-08T03:02:45.409Z,102328.89
2023-05-08T03:03:15.980Z,102331.41
2023-05-08T03:03:46.509Z,102332.56
2023-05-08T03:04:16.968Z,102332.91
2023-05-08T03:04:47.406Z,102333.27
2023-05-08T03:05:17.831Z,102334.61
2023-05-08T03:05:48.247Z,102326.84
2023-05-08T03:06:18.724Z,102332.07
2023-05-08T03:06:49.104Z,102330.39
2023-05-08T03:07:19.536Z,102327.67
2023-05-08T03:07:49.979Z,102336.45
2023-05-08T03:08:20.401Z,102327.17
2023-05-08T03:08:50.859Z,102330.87
2023-05-08T03:09:21.261Z,102330.05
2023-05-08T03:09:51.688Z,102338.12
2023-05-08T03:10:22.121Z,102339.14
2023-05-08T03:10:52.541Z,102336.61
2023-05-08T03:11:22.974Z,102338.78
2023-05-08T03:11:53.398Z,102337.96
2023-05-08T03:12:23.816Z,102338.47
2023-05-08T03:12:54.264Z,102341.50
2023-05-08T03:13:24.823Z,102340.85
2023-05-08T03:13:55.289Z,102339.98
2023-05-08T03:14:25.696Z,102342.03
2023-05-08T03:14:56.139Z,102337.30
2023-05-08T03:15:26.577Z,102337.47
2023-05-08T03:15:57.003Z,102338.14
2023-05-08T03:16:27.457Z,102338.16
2023-05-08T03:16:57.835Z,102339.34
2023-05-08T03:17:28.276Z,102334.08
2023-05-08T03:17:58.811Z,102338.97
2023-05-08T03:18:29.198Z,102335.59
2023-05-08T03:18:59.654Z,102336.60
2023-05-08T03:19:30.082Z,102339.31
2023-05-08T03:20:00.543Z,102338.30
2023-05-08T03:20:30.978Z,102340.34
2023-05-08T03:21:01.478Z,102339.49
2023-05-08T03:21:31.923Z,102339.97
2023-05-08T03:22:02.346Z,102333.40
2023-05-08T03:22:32.762Z,102332.57
2023-05-08T03:23:03.185Z,102339.31
2023-05-08T03:23:33.613Z,102343.84
2023-05-08T03:24:04.062Z,102345.35
2023-05-08T03:24:34.469Z,102341.50
2023-05-08T03:25:04.903Z,102340.81
2023-05-08T03:25:35.323Z,102338.27
2023-05-08T03:26:05.744Z,102341.16
2023-05-08T03:26:36.163Z,102343.86
2023-05-08T03:27:06.587Z,102345.20
2023-05-08T03:27:37.008Z,102342.17
2023-05-08T03:28:07.426Z,102340.30
2023-05-08T03:28:37.891Z,102340.97
2023-05-08T03:29:08.285Z,102339.81
2023-05-08T03:29:38.719Z,102335.25
2023-05-08T03:30:09.199Z,102338.80
2023-05-08T03:30:39.580Z,102335.75
2023-05-08T03:31:10.094Z,102341.14
2023-05-08T03:31:40.526Z,102338.78
2023-05-08T03:32:10.921Z,102340.12
2023-05-08T03:32:41.436Z,102333.72
2023-05-08T03:33:11.827Z,102333.86
2023-05-08T03:33:42.257Z,102338.11
2023-05-08T03:34:12.680Z,102341.80
2023-05-08T03:34:43.098Z,102338.81
2023-05-08T03:35:13.523Z,102338.12
2023-05-08T03:35:43.945Z,102343.19
2023-05-08T03:36:14.370Z,102338.48
2023-05-08T03:36:44.805Z,102341.16
2023-05-08T03:37:15.254Z,102338.65
2023-05-08T03:37:45.671Z,102341.00
2023-05-08T03:38:16.103Z,102342.50
2023-05-08T03:38:46.528Z,102339.97
2023-05-08T03:39:16.968Z,102339.97
2023-05-08T03:39:47.364Z,102339.28
2023-05-08T03:40:17.818Z,102340.48
2023-05-08T03:40:48.248Z,102339.96
2023-05-08T03:41:18.674Z,102338.60
2023-05-08T03:41:49.090Z,102344.52
2023-05-08T03:42:19.523Z,102342.16
2023-05-08T03:42:49.950Z,102345.02
2023-05-08T03:43:20.379Z,102343.52
2023-05-08T03:43:50.811Z,102346.03
2023-05-08T03:44:21.229Z,102344.34
2023-05-08T03:44:51.729Z,102342.66
2023-05-08T03:45:22.138Z,102343.52
2023-05-08T03:45:52.559Z,102341.47
2023-05-08T03:46:23.047Z,102341.81
2023-05-08T03:46:53.531Z,102340.80
2023-05-08T03:47:23.942Z,102342.66
2023-05-08T03:47:54.409Z,102345.69
2023-05-08T03:48:24.808Z,102346.38
2023-05-08T03:48:55.235Z,102347.20
2023-05-08T03:49:25.655Z,102345.36
2023-05-08T03:49:56.086Z,102346.53
2023-05-08T03:50:26.510Z,102345.53
2023-05-08T03:50:56.931Z,102344.50
2023-05-08T03:51:27.350Z,102341.14
2023-05-08T03:51:57.775Z,102339.59
2023-05-08T03:52:28.205Z,102349.55
2023-05-08T03:52:58.649Z,102347.03
2023-05-08T03:53:29.079Z,102345.66
2023-05-08T03:53:59.516Z,102345.00
2023-05-08T03:54:29.948Z,102345.83
2023-05-08T03:55:00.358Z,102347.36
2023-05-08T03:55:30.775Z,102349.73
2023-05-08T03:56:01.202Z,102349.22
2023-05-08T03:56:31.633Z,102351.41
2023-05-08T03:57:02.063Z,102350.39
2023-05-08T03:57:32.506Z,102350.06
2023-05-08T03:58:02.960Z,102353.07
2023-05-08T03:58:33.349Z,102353.09
2023-05-08T03:59:03.773Z,102352.41
2023-05-08T03:59:34.223Z,102351.41
2023-05-08T04:00:04.656Z,102351.42
2023-05-08T04:00:35.068Z,102352.94
2023-05-08T04:01:05.497Z,102352.77
2023-05-08T04:01:35.922Z,102352.23
2023-05-08T04:02:06.512Z,102354.11
2023-05-08T04:02:37.019Z,102352.09
2023-05-08T04:03:07.491Z,102350.22
2023-05-08T04:03:38.037Z,102349.22
2023-05-08T04:04:08.471Z,102350.42
2023-05-08T04:04:38.888Z,102353.61
2023-05-08T04:05:09.313Z,102349.73
2023-05-08T04:05:39.729Z,102352.94
2023-05-08T04:06:10.151Z,102349.77
2023-05-08T04:06:49.286Z,102354.97
2023-05-08T04:07:15.916Z,102353.27
2023-05-08T04:07:46.358Z,102352.94
2023-05-08T04:08:16.785Z,102350.75
2023-05-08T04:08:47.199Z,102349.56
2023-05-08T04:09:17.629Z,102350.58
2023-05-08T04:09:48.069Z,102352.27
2023-05-08T04:10:18.480Z,102350.09
2023-05-08T04:10:48.895Z,102352.28
2023-05-08T04:11:19.314Z,102355.14
2023-05-08T04:11:49.744Z,102351.76
2023-05-08T04:12:20.191Z,102349.24
2023-05-08T04:12:50.616Z,102347.70
2023-05-08T04:13:21.146Z,102352.94
2023-05-08T04:13:51.557Z,102352.92
2023-05-08T04:14:21.979Z,102348.39
2023-05-08T04:14:54.793Z,102353.61
2023-05-08T04:15:26.663Z,102352.07
2023-05-08T04:15:57.093Z,102349.20
2023-05-08T04:16:27.564Z,102355.12
2023-05-08T04:16:58.140Z,102353.27
2023-05-08T04:17:28.584Z,102354.12
2023-05-08T04:17:59.031Z,102349.22
2023-05-08T04:18:29.468Z,102353.75
2023-05-08T04:18:59.888Z,102351.59
2023-05-08T04:19:30.314Z,102351.24
2023-05-08T04:20:00.734Z,102354.09
2023-05-08T04:20:31.154Z,102352.58
2023-05-08T04:21:01.575Z,102353.10
2023-05-08T04:21:32.021Z,102354.77
2023-05-08T04:22:02.462Z,102354.94
2023-05-08T04:22:32.879Z,102353.78
2023-05-08T04:23:03.315Z,102354.45
2023-05-08T04:23:33.719Z,102352.09
2023-05-08T04:24:04.141Z,102352.41
2023-05-08T04:24:34.562Z,102351.41
2023-05-08T04:25:05.026Z,102352.92
2023-05-08T04:25:35.425Z,102352.44
2023-05-08T04:26:05.869Z,102352.77
2023-05-08T04:26:36.291Z,102353.44
2023-05-08T04:27:06.724Z,102354.60
2023-05-08T04:27:37.146Z,102354.95
2023-05-08T04:28:07.560Z,102347.72
2023-05-08T04:28:37.984Z,102352.42
2023-05-08T04:29:08.404Z,102350.92
2023-05-08T04:29:38.832Z,102350.23
2023-05-08T04:30:09.257Z,102350.41
2023-05-08T04:30:39.683Z,102349.75
2023-05-08T04:31:10.114Z,102353.78
2023-05-08T04:31:40.577Z,102352.94
2023-05-08T04:32:10.984Z,102356.31
2023-05-08T04:32:42.898Z,102352.79
2023-05-08T04:33:15.261Z,102355.81
2023-05-08T04:33:45.654Z,102358.52
2023-05-08T04:34:16.085Z,102356.31
2023-05-08T04:34:46.497Z,102358.85
2023-05-08T04:35:16.941Z,102356.81
2023-05-08T04:35:47.360Z,102355.82
2023-05-08T04:36:17.790Z,102359.36
2023-05-08T04:36:48.218Z,102356.66
2023-05-08T04:37:18.640Z,102358.18
2023-05-08T04:37:49.064Z,102360.86
2023-05-08T04:38:19.484Z,102356.48
2023-05-08T04:38:49.904Z,102361.55
2023-05-08T04:39:20.326Z,102359.02
2023-05-08T04:39:50.753Z,102359.52
2023-05-08T04:40:21.194Z,102361.05
2023-05-08T04:40:51.621Z,102358.86
2023-05-08T04:41:22.051Z,102363.73
2023-05-08T04:41:52.516Z,102362.21
2023-05-08T04:42:22.932Z,102359.34
2023-05-08T04:42:53.352Z,102361.88
2023-05-08T04:43:23.768Z,102364.56
2023-05-08T04:43:54.195Z,102368.95
2023-05-08T04:44:24.622Z,102368.95
2023-05-08T04:44:55.042Z,102371.80
2023-05-08T04:45:25.475Z,102375.36
2023-05-08T04:45:56.017Z,102368.27
2023-05-08T04:46:26.415Z,102369.12
2023-05-08T04:46:56.863Z,102372.47
2023-05-08T04:47:27.307Z,102372.31
2023-05-08T04:47:57.742Z,102373.29
2023-05-08T04:48:28.144Z,102373.48
2023-05-08T04:48:58.587Z,102376.51
2023-05-08T04:49:29.015Z,102383.23
2023-05-08T04:50:02.111Z,102380.55
2023-05-08T04:50:33.009Z,102380.88
2023-05-08T04:51:03.441Z,102386.95
2023-05-08T04:51:33.873Z,102383.75
2023-05-08T04:52:04.302Z,102382.39
2023-05-08T04:52:34.729Z,102385.92
2023-05-08T04:53:05.153Z,102383.07
2023-05-08T04:53:35.584Z,102385.43
2023-05-08T04:54:06.006Z,102386.27
2023-05-08T04:54:36.442Z,102386.77
2023-05-08T04:55:06.889Z,102389.80
2023-05-08T04:55:37.324Z,102391.34
2023-05-08T04:56:07.727Z,102390.84
2023-05-08T04:56:38.156Z,102392.87
2023-05-08T04:57:08.577Z,102386.12
2023-05-08T04:57:39.002Z,102392.02
2023-05-08T04:58:09.424Z,102389.49
2023-05-08T04:58:39.850Z,102393.86
2023-05-08T04:59:10.273Z,102391.02
2023-05-08T04:59:40.697Z,102389.66
2023-05-08T05:00:11.136Z,102392.86
2023-05-08T05:00:41.555Z,102395.91
2023-05-08T05:01:12.009Z,102391.19
2023-05-08T05:01:42.423Z,102388.84
2023-05-08T05:02:12.824Z,102392.88
2023-05-08T05:02:43.275Z,102398.78
2023-05-08T05:03:13.835Z,102395.90
2023-05-08T05:03:44.330Z,102396.91
2023-05-08T05:04:14.752Z,102395.55
2023-05-08T05:04:45.212Z,102393.18
2023-05-08T05:05:15.691Z,102393.88
2023-05-08T05:05:46.140Z,102394.37
2023-05-08T05:06:16.563Z,102395.20
2023-05-08T05:06:46.986Z,102397.05
2023-05-08T05:07:17.420Z,102394.67
2023-05-08T05:07:47.833Z,102394.03
2023-05-08T05:08:18.256Z,102394.69
2023-05-08T05:08:48.689Z,102396.89
2023-05-08T05:09:19.108Z,102398.07
2023-05-08T05:09:49.537Z,102396.88
2023-05-08T05:10:19.964Z,102394.70
2023-05-08T05:10:50.409Z,102398.89
2023-05-08T05:11:20.805Z,102397.05
2023-05-08T05:11:51.227Z,102402.44
2023-05-08T05:12:21.648Z,102398.06
2023-05-08T05:12:52.174Z,102399.40
2023-05-08T05:13:22.684Z,102401.09
2023-05-08T05:13:53.115Z,102402.10
2023-05-08T05:14:23.566Z,102402.10
2023-05-08T05:14:54.009Z,102398.87
2023-05-08T05:15:24.442Z,102405.44
2023-05-08T05:15:54.878Z,102409.80
2023-05-08T05:16:25.327Z,102405.44
2023-05-08T05:16:55.721Z,102413.52
2023-05-08T05:17:26.169Z,102405.96
2023-05-08T05:17:56.750Z,102404.80
2023-05-08T05:18:27.241Z,102406.99
2023-05-08T05:18:57.644Z,102405.11
2023-05-08T05:19:28.079Z,102407.64
2023-05-08T05:19:58.498Z,102410.48
2023-05-08T05:20:28.937Z,102403.09
2023-05-08T05:20:59.355Z,102406.96
2023-05-08T05:21:29.787Z,102406.14
2023-05-08T05:22:00.200Z,102404.60
2023-05-08T05:22:30.625Z,102410.84
2023-05-08T05:23:01.041Z,102407.98
2023-05-08T05:23:31.479Z,102411.67
2023-05-08T05:24:01.885Z,102409.48
2023-05-08T05:24:32.316Z,102412.34
2023-05-08T05:25:02.736Z,102412.70
2023-05-08T05:25:33.157Z,102412.19
2023-05-08T05:26:03.614Z,102414.55
2023-05-08T05:26:35.233Z,102410.66
2023-05-08T05:27:07.110Z,102413.69
2023-05-08T05:27:37.565Z,102410.84
2023-05-08T05:28:07.947Z,102409.33
2023-05-08T05:28:38.378Z,102413.89
2023-05-08T05:29:08.811Z,102414.90
2023-05-08T05:29:39.234Z,102415.38
2023-05-08T05:30:09.707Z,102418.42
2023-05-08T05:30:40.181Z,102417.24
2023-05-08T05:31:10.639Z,102416.23
2023-05-08T05:31:41.067Z,102412.03
2023-05-08T05:32:11.500Z,102414.36
2023-05-08T05:32:41.924Z,102419.28
2023-05-08T05:33:12.371Z,102419.09
2023-05-08T05:33:42.781Z,102420.61
2023-05-08T05:34:13.201Z,102421.78
2023-05-08T05:34:43.623Z,102419.07
2023-05-08T05:35:14.260Z,102414.03
2023-05-08T05:35:44.794Z,102416.02
2023-05-08T05:36:15.212Z,102415.34
2023-05-08T05:36:45.642Z,102417.88
2023-05-08T05:37:16.066Z,102414.50
2023-05-08T05:37:46.493Z,102417.72
2023-05-08T05:38:16.925Z,102418.06
2023-05-08T05:38:47.353Z,102412.97
2023-05-08T05:39:17.788Z,102415.84
2023-05-08T05:39:48.207Z,102419.23
2023-05-08T05:40:18.633Z,102414.69
2023-05-08T05:40:49.056Z,102419.41
2023-05-08T05:41:19.571Z,102421.75
2023-05-08T05:41:49.948Z,102416.20
2023-05-08T05:42:20.378Z,102416.55
2023-05-08T05:42:50.795Z,102417.70
2023-05-08T05:43:21.242Z,102419.75
2023-05-08T05:43:51.664Z,102422.10
2023-05-08T05:44:22.110Z,102421.42
2023-05-08T05:44:52.508Z,102425.63
2023-05-08T05:45:22.947Z,102419.06
2023-05-08T05:45:53.390Z,102423.78
2023-05-08T05:46:23.800Z,102422.42
2023-05-08T05:46:54.268Z,102418.55
2023-05-08T05:47:24.710Z,102418.91
2023-05-08T05:47:55.133Z,102423.45